createdAt,value
2022-12-18T00:01:27.707Z,97567.75
2022-12-18T00:03:56.020Z,97557.22
2022-12-18T00:06:23.807Z,97564.59
2022-12-18T00:08:50.433Z,97524.13
2022-12-18T00:11:23.197Z,97538.22
2022-12-18T00:13:50.471Z,97574.22
2022-12-18T00:16:23.502Z,97590.59
2022-12-18T00:18:51.826Z,97585.69
2022-12-18T00:21:19.083Z,97582.41
2022-12-18T00:23:46.691Z,97582.41
2022-12-18T00:26:22.775Z,97584.09
2022-12-18T00:28:49.761Z,97600.69
2022-12-18T00:31:19.084Z,97540.72
2022-12-18T00:33:46.082Z,97609.06
2022-12-18T00:36:18.451Z,97615.47
2022-12-18T00:38:45.638Z,97543.03
2022-12-18T00:41:13.732Z,97601.31
2022-12-18T00:43:52.420Z,97608.91
2022-12-18T00:46:19.005Z,97609.25
2022-12-18T00:48:46.232Z,97620.66
2022-12-18T00:51:12.792Z,97617.06
2022-12-18T00:53:40.409Z,97543.47
2022-12-18T00:56:07.501Z,97623.19
2022-12-18T00:58:37.160Z,97618.91
2022-12-18T01:01:05.877Z,97601.13
2022-12-18T01:03:32.482Z,97620.22
2022-12-18T01:05:59.053Z,97613.97
2022-12-18T01:08:26.068Z,97576.75
2022-12-18T01:10:52.631Z,97625.06
2022-12-18T01:13:19.196Z,97594.56
2022-12-18T01:15:52.754Z,97604.34
2022-12-18T01:18:19.433Z,97626.09
2022-12-18T01:20:45.976Z,97571.22
2022-12-18T01:23:12.522Z,97614.34
2022-12-18T01:25:39.532Z,97603.63
2022-12-18T01:28:06.099Z,97614.66
2022-12-18T01:30:32.702Z,97607.53
2022-12-18T01:32:59.252Z,97607.78
2022-12-18T01:35:25.802Z,97618.91
2022-12-18T01:37:56.079Z,97618.72
2022-12-18T01:40:22.824Z,97624.72
2022-12-18T01:42:53.364Z,97560.34
2022-12-18T01:45:20.055Z,97617.72
2022-12-18T01:47:48.703Z,97503.28
2022-12-18T01:50:20.587Z,97607.13
2022-12-18T01:52:50.951Z,97601.72
2022-12-18T01:55:21.862Z,97623.38
2022-12-18T01:57:49.198Z,97619.72
2022-12-18T02:00:19.384Z,97570.69
2022-12-18T02:02:47.517Z,97577.34
2022-12-18T02:05:30.203Z,97619.91
2022-12-18T02:08:24.016Z,97598.75
2022-12-18T02:10:59.311Z,97560.81
2022-12-18T02:13:44.404Z,97617.88
2022-12-18T02:16:31.700Z,97613.63
2022-12-18T02:19:04.239Z,97563.09
2022-12-18T02:21:59.867Z,97615.13
2022-12-18T02:24:41.575Z,97615.13
2022-12-18T02:27:10.503Z,97614.09
2022-12-18T02:29:43.429Z,97606.81
2022-12-18T02:32:16.223Z,97618.34
2022-12-18T02:34:45.459Z,97558.28
2022-12-18T02:37:17.174Z,97599.34
2022-12-18T02:39:47.489Z,97609.81
2022-12-18T02:42:14.474Z,97610.00
2022-12-18T02:44:50.318Z,97569.78
2022-12-18T02:47:21.251Z,97616.59
2022-12-18T02:49:47.780Z,97618.66
2022-12-18T02:52:26.288Z,97614.66
2022-12-18T02:55:02.337Z,97620.88
2022-12-18T02:57:41.878Z,97605.25
2022-12-18T03:00:15.217Z,97564.53
2022-12-18T03:03:00.570Z,97616.47
2022-12-18T03:05:45.689Z,97602.69
2022-12-18T03:08:22.092Z,97627.31
2022-12-18T03:10:54.691Z,97635.38
2022-12-18T03:13:28.339Z,97635.38
2022-12-18T03:15:57.698Z,97594.28
2022-12-18T03:18:34.578Z,97644.44
2022-12-18T03:21:05.853Z,97629.84
2022-12-18T03:23:38.062Z,97648.69
2022-12-18T03:26:10.906Z,97622.19
2022-12-18T03:28:41.947Z,97661.56
2022-12-18T03:31:12.318Z,97634.91
2022-12-18T03:33:46.769Z,97669.00
2022-12-18T03:36:13.546Z,97667.53
2022-12-18T03:38:40.253Z,97685.16
2022-12-18T03:41:09.933Z,97676.03
2022-12-18T03:43:43.459Z,97647.84
2022-12-18T03:46:15.886Z,97692.47
2022-12-18T03:48:52.568Z,97688.66
2022-12-18T03:51:27.988Z,97701.44
2022-12-18T03:53:59.429Z,97692.91
2022-12-18T03:56:30.209Z,97697.03
2022-12-18T03:58:58.929Z,97688.06
2022-12-18T04:01:33.417Z,97705.13
2022-12-18T04:04:02.718Z,97695.75
2022-12-18T04:06:30.856Z,97675.59
2022-12-18T04:08:58.896Z,97683.09
2022-12-18T04:11:25.903Z,97692.28
2022-12-18T04:13:57.373Z,97678.03
2022-12-18T04:16:25.623Z,97682.66
2022-12-18T04:18:52.944Z,97760.97
2022-12-18T04:21:20.724Z,97702.91
2022-12-18T04:23:47.697Z,97711.88
2022-12-18T04:26:14.280Z,97709.59
2022-12-18T04:28:40.863Z,97713.94
2022-12-18T04:31:07.711Z,97710.97
2022-12-18T04:33:34.440Z,97720.75
2022-12-18T04:36:01.008Z,97700.16
2022-12-18T04:38:27.591Z,97724.56
2022-12-18T04:40:54.191Z,97703.84
2022-12-18T04:43:21.058Z,97740.00
2022-12-18T04:45:47.654Z,97743.00
2022-12-18T04:48:14.210Z,97745.03
2022-12-18T04:50:40.722Z,97656.38
2022-12-18T04:53:07.837Z,97749.91
2022-12-18T04:55:34.461Z,97759.34
2022-12-18T04:58:01.039Z,97758.91
2022-12-18T05:00:27.609Z,97737.66
2022-12-18T05:02:54.461Z,97761.19
2022-12-18T05:05:21.128Z,97762.78
2022-12-18T05:07:47.667Z,97763.03
2022-12-18T05:10:14.288Z,97768.09
2022-12-18T05:12:58.988Z,97771.31
2022-12-18T05:15:30.140Z,97774.75
2022-12-18T05:17:58.016Z,97765.91
2022-12-18T05:20:25.385Z,97734.22
2022-12-18T05:22:52.790Z,97787.22
2022-12-18T05:25:20.282Z,97720.91
2022-12-18T05:27:47.548Z,97805.09
2022-12-18T05:30:14.584Z,97803.16
2022-12-18T05:32:41.475Z,97797.59
2022-12-18T05:35:09.705Z,97824.84
2022-12-18T05:37:42.535Z,97816.75
2022-12-18T05:40:09.896Z,97816.97
2022-12-18T05:42:36.442Z,97817.91
2022-12-18T05:45:03.128Z,97807.31
2022-12-18T05:47:29.934Z,97820.91
2022-12-18T05:49:56.884Z,97821.38
2022-12-18T05:52:23.569Z,97772.84
2022-12-18T05:54:50.144Z,97760.50
2022-12-18T05:57:16.731Z,97833.56
2022-12-18T05:59:43.292Z,97811.22
2022-12-18T06:02:10.105Z,97817.91
2022-12-18T06:04:36.843Z,97837.50
2022-12-18T06:07:06.495Z,97843.16
2022-12-18T06:09:33.378Z,97851.59
2022-12-18T06:12:00.355Z,97808.91
2022-12-18T06:14:26.988Z,97855.72
2022-12-18T06:16:53.615Z,97863.56
2022-12-18T06:19:21.384Z,97862.44
2022-12-18T06:21:48.320Z,97870.94
2022-12-18T06:24:14.904Z,97870.94
2022-12-18T06:26:41.497Z,97873.84
2022-12-18T06:29:08.349Z,97843.06
2022-12-18T06:31:35.038Z,97882.97
2022-12-18T06:34:04.344Z,97895.19
2022-12-18T06:36:31.870Z,97900.28
2022-12-18T06:38:58.695Z,97906.50
2022-12-18T06:41:25.358Z,97908.78
2022-12-18T06:43:55.606Z,97916.28
2022-12-18T06:46:24.921Z,97892.53
2022-12-18T06:48:51.910Z,97922.28
2022-12-18T06:51:21.220Z,97825.28
2022-12-18T06:53:47.866Z,97932.56
2022-12-18T06:56:14.660Z,97921.91
2022-12-18T06:58:41.307Z,97909.25
2022-12-18T07:01:11.483Z,97887.56
2022-12-18T07:03:40.297Z,97761.78
2022-12-18T07:06:07.578Z,97871.19
2022-12-18T07:08:34.162Z,97935.25
2022-12-18T07:11:04.649Z,97947.06
2022-12-18T07:13:31.854Z,97877.63
2022-12-18T07:16:18.366Z,97927.81
2022-12-18T07:18:49.221Z,97962.75
2022-12-18T07:21:18.514Z,97967.50
2022-12-18T07:23:47.360Z,97895.41
2022-12-18T07:26:15.400Z,97965.03
2022-12-18T07:28:42.525Z,97959.16
2022-12-18T07:31:12.358Z,97967.59
2022-12-18T07:33:39.539Z,97973.03
2022-12-18T07:36:08.049Z,97976.38
2022-12-18T07:38:36.063Z,97982.41
2022-12-18T07:41:11.470Z,97973.19
2022-12-18T07:43:39.489Z,97977.34
2022-12-18T07:46:07.448Z,97575.47
2022-12-18T07:48:34.090Z,97975.47
2022-12-18T07:51:05.614Z,97979.16
2022-12-18T07:53:33.523Z,97973.19
2022-12-18T07:56:26.000Z,97975.47
2022-12-18T07:58:48.637Z,97977.09
2022-12-18T08:01:15.895Z,97964.53
2022-12-18T08:03:43.292Z,97990.66
2022-12-18T08:06:11.061Z,97991.13
2022-12-18T08:08:38.210Z,97994.94
2022-12-18T08:11:05.009Z,97994.25
2022-12-18T08:13:31.832Z,98013.03
2022-12-18T08:16:00.527Z,97910.56
2022-12-18T08:18:27.334Z,98000.44
2022-12-18T08:20:55.541Z,97983.22
2022-12-18T08:23:22.431Z,97995.13
2022-12-18T08:25:49.085Z,97991.50
2022-12-18T08:28:15.729Z,98005.69
2022-12-18T08:30:43.527Z,97993.13
2022-12-18T08:33:10.192Z,97996.00
2022-12-18T08:35:42.517Z,97997.06
2022-12-18T08:38:12.102Z,98005.16
2022-12-18T08:40:38.776Z,98002.59
2022-12-18T08:43:23.878Z,97997.50
2022-12-18T08:45:50.470Z,97996.59
2022-12-18T08:48:21.983Z,97913.22
2022-12-18T08:50:57.000Z,98008.25
2022-12-18T08:53:23.597Z,97999.31
2022-12-18T08:55:50.595Z,98011.78
2022-12-18T08:58:17.310Z,97999.75
2022-12-18T09:00:43.897Z,97985.16
2022-12-18T09:03:18.772Z,97996.69
2022-12-18T09:05:47.070Z,97994.84
2022-12-18T09:08:13.842Z,97932.06
2022-12-18T09:10:49.056Z,98002.22
2022-12-18T09:13:17.101Z,98001.41
2022-12-18T09:15:49.407Z,97985.31
2022-12-18T09:18:18.284Z,98011.16
2022-12-18T09:20:45.269Z,98005.44
2022-12-18T09:23:12.323Z,98025.41
2022-12-18T09:25:39.881Z,98032.53
2022-12-18T09:28:11.552Z,97683.22
2022-12-18T09:30:42.488Z,98026.22
2022-12-18T09:33:09.089Z,98024.84
2022-12-18T09:35:43.275Z,97958.16
2022-12-18T09:38:13.886Z,98032.28
2022-12-18T09:40:50.611Z,98008.97
2022-12-18T09:43:21.829Z,98023.94
2022-12-18T09:45:54.089Z,98041.06
2022-12-18T09:48:27.313Z,98044.47
2022-12-18T09:50:58.292Z,98038.84
2022-12-18T09:53:29.265Z,98038.53
2022-12-18T09:55:57.458Z,98029.38
2022-12-18T09:58:41.130Z,98036.31
2022-12-18T10:01:22.676Z,97983.66
2022-12-18T10:03:49.879Z,98044.88
2022-12-18T10:06:22.277Z,98041.22
2022-12-18T10:09:07.275Z,98048.16
2022-12-18T10:11:54.950Z,98040.22
2022-12-18T10:14:58.045Z,98050.66
2022-12-18T10:17:33.446Z,98049.03
2022-12-18T10:20:36.888Z,98044.81
2022-12-18T10:23:17.139Z,98051.88
2022-12-18T10:26:08.215Z,98055.16
2022-12-18T10:28:41.088Z,98048.16
2022-12-18T10:31:15.491Z,98048.72
2022-12-18T10:33:42.323Z,98060.72
2022-12-18T10:36:09.037Z,98032.13
2022-12-18T10:38:36.115Z,98049.63
2022-12-18T10:41:26.874Z,98058.66
2022-12-18T10:44:27.641Z,98052.91
2022-12-18T10:47:10.210Z,98042.31
2022-12-18T10:49:48.265Z,98053.63
2022-12-18T10:52:25.836Z,98062.16
2022-12-18T10:55:05.576Z,98051.88
2022-12-18T10:57:33.761Z,98033.41
2022-12-18T11:00:20.386Z,98056.59
2022-12-18T11:02:47.114Z,98042.03
2022-12-18T11:05:37.736Z,98062.56
2022-12-18T11:08:04.746Z,98044.38
2022-12-18T11:10:33.788Z,98044.97
2022-12-18T11:13:21.172Z,98065.53
2022-12-18T11:15:48.455Z,98072.22
2022-12-18T11:18:20.985Z,98068.75
2022-12-18T11:21:00.479Z,98079.38
2022-12-18T11:23:27.903Z,98038.28
2022-12-18T11:26:00.952Z,98027.53
2022-12-18T11:28:42.007Z,98068.88
2022-12-18T11:31:23.448Z,98073.59
2022-12-18T11:34:28.058Z,98076.38
2022-12-18T11:36:51.715Z,98075.69
2022-12-18T11:39:30.324Z,98078.94
2022-12-18T11:42:13.077Z,98082.63
2022-12-18T11:45:03.347Z,98084.47
2022-12-18T11:47:49.054Z,98074.19
2022-12-18T11:50:24.596Z,98079.84
2022-12-18T11:52:56.540Z,98063.22
2022-12-18T11:55:45.062Z,98096.94
2022-12-18T11:58:17.886Z,98078.44
2022-12-18T12:00:51.480Z,98033.88
2022-12-18T12:03:43.457Z,98087.47
2022-12-18T12:06:41.620Z,98086.53
2022-12-18T12:09:33.068Z,98084.47
2022-12-18T12:12:18.379Z,98088.63
2022-12-18T12:15:06.538Z,98042.28
2022-12-18T12:17:46.515Z,98087.34
2022-12-18T12:20:35.837Z,98095.31
2022-12-18T12:23:16.212Z,98087.00
2022-12-18T12:25:53.600Z,97999.84
2022-12-18T12:29:00.708Z,98091.03
2022-12-18T12:31:39.689Z,98088.47
2022-12-18T12:34:17.522Z,98085.38
2022-12-18T12:36:53.194Z,98090.22
2022-12-18T12:39:24.815Z,98092.97
2022-12-18T12:42:10.331Z,98103.81
2022-12-18T12:44:43.589Z,97967.16
2022-12-18T12:47:24.969Z,98054.97
2022-12-18T12:49:52.078Z,98109.78
2022-12-18T12:52:40.875Z,98105.84
2022-12-18T12:55:16.279Z,98116.72
2022-12-18T12:57:49.949Z,98125.69
2022-12-18T13:00:20.463Z,97729.97
2022-12-18T13:02:59.290Z,98126.41
2022-12-18T13:05:52.094Z,98123.31
2022-12-18T13:08:26.644Z,98127.63
2022-12-18T13:11:15.348Z,98132.97
2022-12-18T13:13:56.126Z,98145.84
2022-12-18T13:16:28.281Z,98149.25
2022-12-18T13:18:59.818Z,98132.63
2022-12-18T13:21:31.805Z,98112.53
2022-12-18T13:24:16.649Z,98149.50
2022-12-18T13:26:43.279Z,98151.13
2022-12-18T13:29:09.947Z,98105.81
2022-12-18T13:31:40.135Z,98160.81
2022-12-18T13:34:26.930Z,98146.59
2022-12-18T13:36:58.366Z,98164.66
2022-12-18T13:39:35.213Z,98165.03
2022-12-18T13:42:08.734Z,98168.44
2022-12-18T13:44:41.175Z,98166.13
2022-12-18T13:47:40.900Z,98173.69
2022-12-18T13:50:32.459Z,98175.72
2022-12-18T13:53:04.100Z,98164.47
2022-12-18T13:55:30.740Z,98175.16
2022-12-18T13:58:07.646Z,98162.19
2022-12-18T14:00:34.245Z,98173.13
2022-12-18T14:03:01.735Z,98159.50
2022-12-18T14:05:35.519Z,98192.59
2022-12-18T14:08:07.206Z,98172.19
2022-12-18T14:10:49.124Z,98203.84
2022-12-18T14:13:25.448Z,98207.75
2022-12-18T14:15:52.721Z,98197.84
2022-12-18T14:18:45.141Z,98200.13
2022-12-18T14:21:22.301Z,98200.41
2022-12-18T14:23:49.204Z,98219.16
2022-12-18T14:26:34.501Z,98204.97
2022-12-18T14:29:19.413Z,98213.63
2022-12-18T14:31:46.680Z,98209.84
2022-12-18T14:34:20.327Z,98220.66
2022-12-18T14:36:54.868Z,98226.06
2022-12-18T14:39:21.471Z,98210.13
2022-12-18T14:41:50.761Z,98198.50
2022-12-18T14:44:17.292Z,98225.13
2022-12-18T14:46:46.774Z,98217.34
2022-12-18T14:49:34.283Z,98233.81
2022-12-18T14:52:06.828Z,98248.19
2022-12-18T14:54:38.159Z,98231.78
2022-12-18T14:57:23.215Z,98237.41
2022-12-18T14:59:50.802Z,98147.34
2022-12-18T15:02:28.742Z,98235.50
2022-12-18T15:05:29.228Z,98236.97
2022-12-18T15:07:58.874Z,98185.94
2022-12-18T15:10:28.372Z,98243.94
2022-12-18T15:12:57.934Z,98237.41
2022-12-18T15:15:36.920Z,98243.88
2022-12-18T15:18:12.421Z,98242.38
2022-12-18T15:20:43.667Z,98243.78
2022-12-18T15:23:46.459Z,98254.84
2022-12-18T15:26:15.821Z,98261.06
2022-12-18T15:28:49.215Z,98274.13
2022-12-18T15:31:16.200Z,98281.69
2022-12-18T15:34:04.927Z,98278.59
2022-12-18T15:36:31.785Z,98277.78
2022-12-18T15:39:05.198Z,98233.72
2022-12-18T15:41:36.036Z,98281.75
2022-12-18T15:44:04.086Z,98286.84
2022-12-18T15:46:32.156Z,98293.53
2022-12-18T15:49:02.092Z,98296.69
2022-12-18T15:51:33.597Z,98248.88
2022-12-18T15:54:04.921Z,98297.06
2022-12-18T15:56:50.539Z,98252.84
2022-12-18T15:59:20.070Z,98310.81
2022-12-18T16:01:49.392Z,98305.66
2022-12-18T16:04:21.397Z,98191.94
2022-12-18T16:09:39.897Z,98312.38
2022-12-18T16:12:08.142Z,98325.41
2022-12-18T16:14:34.887Z,98321.47
2022-12-18T16:17:03.960Z,98336.13
2022-12-18T16:19:31.227Z,98330.78
2022-12-18T16:21:59.339Z,98346.22
2022-12-18T16:24:29.646Z,98254.91
2022-12-18T16:26:59.918Z,98347.19
2022-12-18T16:29:28.745Z,98362.13
2022-12-18T16:32:00.890Z,98345.81
2022-12-18T16:34:32.878Z,98355.47
2022-12-18T16:37:06.859Z,98360.19
2022-12-18T16:39:38.212Z,98365.22
2022-12-18T16:42:10.044Z,98360.00
2022-12-18T16:44:36.901Z,98358.09
2022-12-18T16:47:04.553Z,98363.75
2022-12-18T16:49:32.047Z,98296.94
2022-12-18T16:51:59.020Z,98359.50
2022-12-18T16:54:25.899Z,98361.59
2022-12-18T16:56:53.038Z,98375.03
2022-12-18T16:59:20.046Z,98226.00
2022-12-18T17:01:47.501Z,98332.66
2022-12-18T17:04:14.873Z,98371.75
2022-12-18T17:06:44.322Z,98294.53
2022-12-18T17:09:18.820Z,98406.16
2022-12-18T17:11:45.678Z,98400.97
2022-12-18T17:14:18.475Z,98404.25
2022-12-18T17:16:46.715Z,98409.13
2022-12-18T17:19:17.269Z,98414.34
2022-12-18T17:21:47.576Z,98391.78
2022-12-18T17:24:14.460Z,98419.59
2022-12-18T17:26:41.315Z,98418.63
2022-12-18T17:29:08.469Z,98425.00
2022-12-18T17:31:35.351Z,98358.81
2022-12-18T17:34:03.763Z,98352.97
2022-12-18T17:36:32.416Z,98438.22
2022-12-18T17:39:04.451Z,98440.41
2022-12-18T17:41:31.615Z,98437.66
2022-12-18T17:44:01.568Z,98437.81
2022-12-18T17:46:30.939Z,98446.59
2022-12-18T17:48:59.086Z,98443.31
2022-12-18T17:51:26.052Z,98444.56
2022-12-18T17:53:53.116Z,98451.13
2022-12-18T17:56:21.674Z,98453.84
2022-12-18T17:58:50.630Z,98461.19
2022-12-18T18:01:23.452Z,98422.91
2022-12-18T18:03:53.563Z,98461.59
2022-12-18T18:06:21.105Z,98465.09
2022-12-18T18:08:48.325Z,98469.63
2022-12-18T18:11:38.428Z,98463.09
2022-12-18T18:14:11.267Z,98477.00
2022-12-18T18:16:43.748Z,98470.72
2022-12-18T18:19:17.442Z,98471.31
2022-12-18T18:21:46.435Z,98496.09
2022-12-18T18:24:17.764Z,98512.59
2022-12-18T18:26:49.407Z,98490.78
2022-12-18T18:29:22.672Z,98514.16
2022-12-18T18:31:49.900Z,98516.41
2022-12-18T18:34:19.183Z,98534.25
2022-12-18T18:36:49.138Z,98529.25
2022-12-18T18:39:16.207Z,98524.47
2022-12-18T18:41:47.184Z,98539.34
2022-12-18T18:44:15.436Z,98547.31
2022-12-18T18:46:42.182Z,98436.63
2022-12-18T18:49:09.910Z,98519.78
2022-12-18T18:51:37.244Z,98550.38
2022-12-18T18:54:04.121Z,98544.13
2022-12-18T18:56:56.172Z,98512.94
2022-12-18T18:59:18.756Z,98545.25
2022-12-18T19:01:45.780Z,98479.59
2022-12-18T19:04:12.844Z,98557.69
2022-12-18T19:06:39.879Z,98564.81
2022-12-18T19:09:07.526Z,98490.25
2022-12-18T19:11:52.990Z,98549.72
2022-12-18T19:14:20.468Z,98555.22
2022-12-18T19:16:47.201Z,98559.22
2022-12-18T19:19:14.745Z,98539.84
2022-12-18T19:21:41.710Z,98547.31
2022-12-18T19:24:09.584Z,98564.00
2022-12-18T19:26:37.720Z,98566.66
2022-12-18T19:29:09.418Z,98563.38
2022-12-18T19:31:37.443Z,98460.69
2022-12-18T19:34:08.583Z,98497.34
2022-12-18T19:36:39.905Z,98520.38
2022-12-18T19:39:17.927Z,98570.94
2022-12-18T19:41:48.325Z,98567.75
2022-12-18T19:44:17.061Z,98569.28
2022-12-18T19:46:46.249Z,98539.84
2022-12-18T19:49:18.133Z,98567.16
2022-12-18T19:51:45.204Z,98574.47
2022-12-18T19:54:16.616Z,98581.50
2022-12-18T19:56:44.270Z,98581.50
2022-12-18T19:59:10.952Z,98579.06
2022-12-18T20:01:37.910Z,98589.25
2022-12-18T20:04:05.053Z,98579.09
2022-12-18T20:06:35.563Z,98581.94
2022-12-18T20:09:06.247Z,98565.41
2022-12-18T20:11:41.245Z,98598.06
2022-12-18T20:14:10.338Z,98204.56
2022-12-18T20:16:37.045Z,98598.22
2022-12-18T20:19:05.276Z,98604.66
2022-12-18T20:21:31.912Z,98605.78
2022-12-18T20:24:00.169Z,98600.88
2022-12-18T20:26:27.139Z,98603.88
2022-12-18T20:28:54.587Z,98514.50
2022-12-18T20:31:22.193Z,98615.78
2022-12-18T20:33:49.953Z,98604.59
2022-12-18T20:36:22.440Z,98589.88
2022-12-18T20:38:55.295Z,98636.38
2022-12-18T20:41:25.096Z,98627.63
2022-12-18T20:43:51.849Z,98624.97
2022-12-18T20:46:18.983Z,98616.59
2022-12-18T20:48:46.069Z,98626.19
2022-12-18T20:51:16.903Z,98631.69
2022-12-18T20:53:44.861Z,98625.19
2022-12-18T20:56:22.872Z,98632.50
2022-12-18T20:58:50.894Z,98618.16
2022-12-18T21:01:23.785Z,98629.84
2022-12-18T21:03:51.566Z,98614.34
2022-12-18T21:06:20.269Z,98629.47
2022-12-18T21:08:47.173Z,98629.03
2022-12-18T21:11:34.782Z,98632.91
2022-12-18T21:14:03.377Z,98625.19
2022-12-18T21:16:30.239Z,98642.69
2022-12-18T21:18:56.908Z,98625.88
2022-12-18T21:21:26.903Z,98645.53
2022-12-18T21:23:54.032Z,98618.41
2022-12-18T21:26:28.468Z,98652.69
2022-12-18T21:28:57.086Z,98624.84
2022-12-18T21:31:27.019Z,98614.13
2022-12-18T21:34:01.308Z,98612.50
2022-12-18T21:36:30.043Z,98656.56
2022-12-18T21:38:57.989Z,98643.31
2022-12-18T21:41:44.306Z,98642.69
2022-12-18T21:44:13.148Z,98649.25
2022-12-18T21:46:42.186Z,98655.16
2022-12-18T21:49:09.731Z,98648.41
2022-12-18T21:51:37.330Z,98213.25
2022-12-18T21:54:04.246Z,98660.22
2022-12-18T21:56:51.095Z,98648.22
2022-12-18T21:59:20.245Z,98666.47
2022-12-18T22:01:47.769Z,98659.44
2022-12-18T22:04:15.841Z,98661.44
2022-12-18T22:06:42.969Z,98570.09
2022-12-18T22:09:12.336Z,98649.44
2022-12-18T22:11:39.317Z,98650.44
2022-12-18T22:14:06.646Z,98605.13
2022-12-18T22:16:33.550Z,98661.22
2022-12-18T22:19:04.869Z,98657.38
2022-12-18T22:21:34.664Z,98653.59
2022-12-18T22:24:10.816Z,98653.06
2022-12-18T22:26:40.183Z,98663.31
2022-12-18T22:29:26.981Z,98658.78
2022-12-18T22:31:53.549Z,98659.00
2022-12-18T22:34:23.078Z,98637.25
2022-12-18T22:36:50.777Z,98652.75
2022-12-18T22:39:23.400Z,98670.09
2022-12-18T22:41:50.869Z,98664.91
2022-12-18T22:44:18.112Z,98667.84
2022-12-18T22:46:49.296Z,98670.09
2022-12-18T22:49:25.139Z,98665.31
2022-12-18T22:51:53.138Z,98603.19
2022-12-18T22:54:20.569Z,98654.47
2022-12-18T22:56:47.197Z,98659.56
2022-12-18T22:59:18.919Z,98654.28
2022-12-18T23:01:46.068Z,98650.91
2022-12-18T23:04:14.711Z,98654.03
2022-12-18T23:06:43.076Z,98521.63
2022-12-18T23:09:18.698Z,98651.56
2022-12-18T23:11:46.142Z,98646.53
2022-12-18T23:14:13.061Z,98649.78
2022-12-18T23:16:39.708Z,98582.63
2022-12-18T23:19:06.387Z,98661.81
2022-12-18T23:21:32.945Z,98668.94
2022-12-18T23:24:00.545Z,98659.97
2022-12-18T23:26:27.729Z,98665.84
2022-12-18T23:28:57.803Z,98668.22
2022-12-18T23:31:27.433Z,98678.91
2022-12-18T23:33:57.329Z,98654.56
2022-12-18T23:36:25.065Z,98676.78
2022-12-18T23:38:57.587Z,98657.94
2022-12-18T23:41:26.227Z,98671.69
2022-12-18T23:43:53.669Z,98675.78
2022-12-18T23:46:25.873Z,98666.63
2022-12-18T23:48:52.857Z,98650.81
2022-12-18T23:51:23.444Z,98697.53
2022-12-18T23:53:50.909Z,98714.91
2022-12-18T23:56:17.457Z,98702.84
2022-12-18T23:58:44.409Z,98699.78
